createdAt,value
2022-11-16T00:00:07.471Z,10.20
2022-11-16T00:00:17.210Z,10.40
2022-11-16T00:00:27.430Z,9.90
2022-11-16T00:00:37.331Z,10.50
2022-11-16T00:00:47.430Z,10.70
2022-11-16T00:00:57.359Z,10.80
2022-11-16T00:01:07.417Z,10.00
2022-11-16T00:01:17.235Z,9.40
2022-11-16T00:01:27.320Z,10.30
2022-11-16T00:01:37.349Z,10.50
2022-11-16T00:01:47.447Z,11.90
2022-11-16T00:01:57.433Z,11.60
2022-11-16T00:02:07.329Z,11.00
2022-11-16T00:02:17.289Z,9.50
2022-11-16T00:02:27.471Z,10.10
2022-11-16T00:02:37.558Z,10.80
2022-11-16T00:02:47.287Z,11.60
2022-11-16T00:02:57.438Z,10.70
2022-11-16T00:03:07.153Z,9.80
2022-11-16T00:03:17.390Z,9.30
2022-11-16T00:03:27.459Z,10.30
2022-11-16T00:03:37.367Z,10.80
2022-11-16T00:03:47.236Z,11.10
2022-11-16T00:03:57.198Z,10.60
2022-11-16T00:04:07.554Z,10.70
2022-11-16T00:04:17.261Z,10.10
2022-11-16T00:04:27.387Z,10.30
2022-11-16T00:04:37.308Z,9.80
2022-11-16T00:04:47.280Z,10.00
2022-11-16T00:04:57.250Z,9.10
2022-11-16T00:05:07.446Z,9.70
2022-11-16T00:05:17.413Z,10.10
2022-11-16T00:05:28.630Z,10.60
2022-11-16T00:05:37.264Z,10.40
2022-11-16T00:05:47.462Z,9.90
2022-11-16T00:05:57.312Z,10.00
2022-11-16T00:06:07.233Z,9.50
2022-11-16T00:06:17.274Z,9.60
2022-11-16T00:06:27.404Z,9.60
2022-11-16T00:06:37.249Z,10.80
2022-11-16T00:06:47.436Z,10.20
2022-11-16T00:06:57.425Z,10.40
2022-11-16T00:07:07.226Z,10.50
2022-11-16T00:07:17.519Z,10.90
2022-11-16T00:07:27.394Z,11.30
2022-11-16T00:07:37.415Z,11.10
2022-11-16T00:07:47.335Z,11.90
2022-11-16T00:07:57.317Z,11.30
2022-11-16T00:08:07.293Z,10.60
2022-11-16T00:08:17.205Z,9.50
2022-11-16T00:08:27.443Z,9.70
2022-11-16T00:08:37.347Z,9.90
2022-11-16T00:08:47.283Z,10.10
2022-11-16T00:08:57.341Z,9.80
2022-11-16T00:09:07.209Z,9.60
2022-11-16T00:09:17.422Z,10.00
2022-11-16T00:09:27.357Z,9.90
2022-11-16T00:09:37.364Z,9.50
2022-11-16T00:09:47.295Z,9.50
2022-11-16T00:09:57.192Z,10.10
2022-11-16T00:10:07.259Z,10.70
2022-11-16T00:10:17.160Z,10.40
2022-11-16T00:10:27.274Z,10.60
2022-11-16T00:10:37.217Z,10.60
2022-11-16T00:10:47.312Z,10.70
2022-11-16T00:10:57.502Z,9.40
2022-11-16T00:11:07.273Z,11.90
2022-11-16T00:11:17.223Z,12.00
2022-11-16T00:11:27.355Z,13.00
2022-11-16T00:11:37.171Z,10.60
2022-11-16T00:11:47.469Z,10.70
2022-11-16T00:11:57.332Z,10.50
2022-11-16T00:12:07.403Z,10.50
2022-11-16T00:12:17.234Z,10.80
2022-11-16T00:12:27.424Z,10.70
2022-11-16T00:12:37.341Z,9.90
2022-11-16T00:12:47.186Z,9.30
2022-11-16T00:12:57.316Z,9.50
2022-11-16T00:13:07.402Z,9.70
2022-11-16T00:13:17.368Z,9.70
2022-11-16T00:13:27.301Z,9.60
2022-11-16T00:13:37.202Z,10.60
2022-11-16T00:13:47.291Z,10.30
2022-11-16T00:13:57.343Z,10.50
2022-11-16T00:14:07.179Z,9.70
2022-11-16T00:14:17.324Z,9.80
2022-11-16T00:14:27.319Z,10.30
2022-11-16T00:14:37.438Z,10.90
2022-11-16T00:14:47.300Z,11.40
2022-11-16T00:14:57.351Z,11.30
2022-11-16T00:15:07.408Z,11.20
2022-11-16T00:15:17.172Z,10.30
2022-11-16T00:15:27.386Z,9.50
2022-11-16T00:15:37.389Z,9.80
2022-11-16T00:15:47.446Z,10.20
2022-11-16T00:15:57.443Z,10.20
2022-11-16T00:16:07.188Z,10.10
2022-11-16T00:16:17.272Z,10.30
2022-11-16T00:16:27.344Z,10.20
2022-11-16T00:16:37.471Z,9.90
2022-11-16T00:16:47.334Z,9.20
2022-11-16T00:16:57.444Z,9.80
2022-11-16T00:17:07.384Z,10.30
2022-11-16T00:17:17.187Z,10.40
2022-11-16T00:17:27.374Z,11.10
2022-11-16T00:17:37.209Z,11.60
2022-11-16T00:17:47.347Z,11.40
2022-11-16T00:17:57.347Z,10.60
2022-11-16T00:18:07.202Z,10.40
2022-11-16T00:18:17.322Z,11.60
2022-11-16T00:18:27.332Z,12.60
2022-11-16T00:18:37.394Z,11.30
2022-11-16T00:18:47.450Z,10.40
2022-11-16T00:18:57.180Z,9.40
2022-11-16T00:19:07.221Z,9.70
2022-11-16T00:19:17.339Z,10.80
2022-11-16T00:19:27.173Z,10.10
2022-11-16T00:19:37.335Z,9.70
2022-11-16T00:19:47.166Z,8.30
2022-11-16T00:19:57.286Z,8.40
2022-11-16T00:20:07.356Z,8.50
2022-11-16T00:20:17.278Z,8.70
2022-11-16T00:20:27.311Z,9.40
2022-11-16T00:20:37.409Z,10.20
2022-11-16T00:20:47.231Z,10.60
2022-11-16T00:20:57.292Z,10.30
2022-11-16T00:21:07.451Z,10.30
2022-11-16T00:21:17.433Z,10.10
2022-11-16T00:21:27.256Z,9.80
2022-11-16T00:21:37.354Z,9.70
2022-11-16T00:21:47.406Z,9.90
2022-11-16T00:21:57.310Z,9.70
2022-11-16T00:22:07.385Z,9.90
2022-11-16T00:22:17.408Z,10.80
2022-11-16T00:22:27.247Z,11.10
2022-11-16T00:22:37.259Z,9.60
2022-11-16T00:22:47.184Z,9.30
2022-11-16T00:22:57.302Z,9.30
2022-11-16T00:23:07.370Z,10.70
2022-11-16T00:23:17.451Z,9.90
2022-11-16T00:23:27.340Z,9.80
2022-11-16T00:23:37.228Z,9.80
2022-11-16T00:23:47.217Z,10.10
2022-11-16T00:23:57.194Z,9.90
2022-11-16T00:24:07.441Z,9.40
2022-11-16T00:24:17.164Z,8.80
2022-11-16T00:24:27.220Z,8.70
2022-11-16T00:24:37.339Z,8.60
2022-11-16T00:24:47.320Z,8.80
2022-11-16T00:24:57.283Z,10.00
2022-11-16T00:25:07.469Z,11.20
2022-11-16T00:25:17.446Z,12.00
2022-11-16T00:25:27.439Z,10.50
2022-11-16T00:25:37.245Z,9.60
2022-11-16T00:25:47.232Z,8.70
2022-11-16T00:25:57.216Z,9.10
2022-11-16T00:26:07.289Z,9.00
2022-11-16T00:26:17.332Z,9.30
2022-11-16T00:26:27.413Z,9.60
2022-11-16T00:26:37.288Z,9.70
2022-11-16T00:26:47.247Z,10.80
2022-11-16T00:26:57.358Z,11.00
2022-11-16T00:27:07.243Z,11.00
2022-11-16T00:27:17.400Z,10.10
2022-11-16T00:27:27.476Z,9.40
2022-11-16T00:27:37.428Z,9.00
2022-11-16T00:27:47.211Z,8.80
2022-11-16T00:27:57.256Z,10.40
2022-11-16T00:28:07.296Z,10.30
2022-11-16T00:28:17.268Z,10.70
2022-11-16T00:28:27.312Z,10.40
2022-11-16T00:28:37.302Z,10.80
2022-11-16T00:28:47.468Z,10.90
2022-11-16T00:28:57.344Z,10.00
2022-11-16T00:29:07.289Z,10.70
2022-11-16T00:29:17.411Z,10.10
2022-11-16T00:29:27.254Z,10.00
2022-11-16T00:29:37.372Z,9.80
2022-11-16T00:29:47.181Z,10.10
2022-11-16T00:29:57.219Z,9.90
2022-11-16T00:30:07.238Z,9.80
2022-11-16T00:30:17.372Z,9.80
2022-11-16T00:30:27.214Z,10.70
2022-11-16T00:30:37.262Z,10.30
2022-11-16T00:30:47.227Z,10.50
2022-11-16T00:30:57.381Z,9.70
2022-11-16T00:31:07.401Z,10.30
2022-11-16T00:31:17.281Z,10.20
2022-11-16T00:31:27.216Z,10.10
2022-11-16T00:31:37.304Z,9.70
2022-11-16T00:31:47.172Z,10.10
2022-11-16T00:31:57.426Z,10.40
2022-11-16T00:32:07.240Z,9.80
2022-11-16T00:32:17.326Z,9.20
2022-11-16T00:32:27.387Z,9.50
2022-11-16T00:32:37.384Z,10.30
2022-11-16T00:32:47.271Z,10.70
2022-11-16T00:32:57.216Z,11.40
2022-11-16T00:33:07.308Z,11.20
2022-11-16T00:33:17.414Z,10.90
2022-11-16T00:33:27.194Z,9.80
2022-11-16T00:33:37.367Z,10.30
2022-11-16T00:33:47.232Z,10.00
2022-11-16T00:33:57.236Z,10.20
2022-11-16T00:34:07.470Z,11.00
2022-11-16T00:34:17.241Z,10.90
2022-11-16T00:34:27.397Z,11.00
2022-11-16T00:34:37.297Z,9.10
2022-11-16T00:34:47.403Z,8.80
2022-11-16T00:34:57.372Z,8.50
2022-11-16T00:35:07.246Z,8.80
2022-11-16T00:35:17.358Z,9.60
2022-11-16T00:35:27.297Z,10.00
2022-11-16T00:35:37.405Z,10.70
2022-11-16T00:35:47.341Z,10.80
2022-11-16T00:35:57.182Z,10.30
2022-11-16T00:36:07.165Z,10.30
2022-11-16T00:36:17.275Z,10.40
2022-11-16T00:36:27.617Z,10.20
2022-11-16T00:36:37.274Z,9.60
2022-11-16T00:36:47.270Z,8.90
2022-11-16T00:36:57.486Z,9.60
2022-11-16T00:37:07.282Z,10.10
2022-11-16T00:37:17.291Z,10.00
2022-11-16T00:37:27.459Z,9.70
2022-11-16T00:37:37.281Z,9.90
2022-11-16T00:37:47.233Z,10.80
2022-11-16T00:37:57.342Z,11.70
2022-11-16T00:38:07.347Z,11.80
2022-11-16T00:38:17.468Z,10.90
2022-11-16T00:38:27.241Z,9.70
2022-11-16T00:38:37.367Z,9.80
2022-11-16T00:38:47.300Z,10.30
2022-11-16T00:38:57.198Z,10.50
2022-11-16T00:39:07.401Z,9.40
2022-11-16T00:39:17.333Z,9.70
2022-11-16T00:39:27.398Z,10.00
2022-11-16T00:39:37.257Z,9.80
2022-11-16T00:39:47.265Z,8.80
2022-11-16T00:39:57.357Z,8.50
2022-11-16T00:40:07.439Z,8.90
2022-11-16T00:40:17.391Z,9.90
2022-11-16T00:40:27.192Z,10.10
2022-11-16T00:40:37.328Z,9.70
2022-11-16T00:40:47.408Z,8.90
2022-11-16T00:40:57.442Z,9.00
2022-11-16T00:41:07.410Z,9.30
2022-11-16T00:41:17.185Z,9.50
2022-11-16T00:41:27.380Z,9.30
2022-11-16T00:41:37.249Z,9.00
2022-11-16T00:41:47.217Z,8.60
2022-11-16T00:41:57.240Z,8.70
2022-11-16T00:42:07.414Z,8.40
2022-11-16T00:42:17.324Z,8.70
2022-11-16T00:42:27.490Z,8.50
2022-11-16T00:42:37.438Z,8.70
2022-11-16T00:42:47.399Z,10.30
2022-11-16T00:42:57.236Z,11.30
2022-11-16T00:43:07.151Z,11.30
2022-11-16T00:43:17.161Z,9.90
2022-11-16T00:43:27.173Z,8.60
2022-11-16T00:43:37.355Z,9.80
2022-11-16T00:43:47.405Z,10.40
2022-11-16T00:43:57.190Z,10.40
2022-11-16T00:44:07.227Z,9.70
2022-11-16T00:44:17.330Z,9.10
2022-11-16T00:44:27.318Z,9.30
2022-11-16T00:44:37.409Z,8.70
2022-11-16T00:44:47.429Z,8.80
2022-11-16T00:44:57.403Z,8.90
2022-11-16T00:45:07.446Z,9.60
2022-11-16T00:45:17.306Z,9.20
2022-11-16T00:45:27.292Z,9.50
2022-11-16T00:45:37.341Z,9.40
2022-11-16T00:45:47.335Z,9.90
2022-11-16T00:45:57.464Z,10.50
2022-11-16T00:46:07.452Z,10.30
2022-11-16T00:46:17.445Z,10.10
2022-11-16T00:46:27.412Z,9.00
2022-11-16T00:46:37.440Z,9.30
2022-11-16T00:46:47.199Z,11.30
2022-11-16T00:46:57.321Z,12.50
2022-11-16T00:47:07.319Z,12.40
2022-11-16T00:47:17.177Z,10.20
2022-11-16T00:47:27.310Z,9.00
2022-11-16T00:47:37.250Z,9.30
2022-11-16T00:47:47.409Z,9.60
2022-11-16T00:48:00.416Z,11.10
2022-11-16T00:48:07.166Z,11.60
2022-11-16T00:48:17.432Z,11.50
2022-11-16T00:48:27.390Z,10.10
2022-11-16T00:48:37.164Z,9.30
2022-11-16T00:48:47.438Z,9.00
2022-11-16T00:48:57.393Z,8.80
2022-11-16T00:49:07.330Z,8.90
2022-11-16T00:49:17.606Z,9.00
2022-11-16T00:49:27.255Z,9.70
2022-11-16T00:49:37.329Z,9.90
2022-11-16T00:49:47.312Z,9.80
2022-11-16T00:49:57.308Z,9.60
2022-11-16T00:50:07.256Z,9.60
2022-11-16T00:50:17.414Z,10.10
2022-11-16T00:50:27.414Z,11.00
2022-11-16T00:50:37.387Z,11.10
2022-11-16T00:50:47.360Z,10.60
2022-11-16T00:50:57.166Z,9.20
2022-11-16T00:51:07.177Z,9.40
2022-11-16T00:51:17.379Z,8.70
2022-11-16T00:51:27.301Z,9.10
2022-11-16T00:51:37.247Z,9.50
2022-11-16T00:51:47.227Z,11.10
2022-11-16T00:51:57.309Z,10.70
2022-11-16T00:52:07.292Z,9.00
2022-11-16T00:52:17.325Z,7.40
2022-11-16T00:52:27.275Z,8.20
2022-11-16T00:52:37.211Z,8.40
2022-11-16T00:52:47.334Z,9.40
2022-11-16T00:52:57.385Z,8.80
2022-11-16T00:53:07.273Z,10.20
2022-11-16T00:53:17.302Z,9.60
2022-11-16T00:53:27.330Z,9.70
2022-11-16T00:53:37.400Z,8.30
2022-11-16T00:53:47.194Z,8.50
2022-11-16T00:53:57.172Z,9.70
2022-11-16T00:54:07.333Z,9.70
2022-11-16T00:54:17.231Z,9.60
2022-11-16T00:54:27.248Z,8.40
2022-11-16T00:54:37.250Z,9.10
2022-11-16T00:54:47.276Z,8.80
2022-11-16T00:54:57.417Z,9.10
2022-11-16T00:55:07.247Z,9.20
2022-11-16T00:55:17.470Z,10.60
2022-11-16T00:55:27.342Z,10.10
2022-11-16T00:55:37.275Z,9.90
2022-11-16T00:55:47.392Z,8.70
2022-11-16T00:55:57.215Z,8.80
2022-11-16T00:56:07.273Z,9.00
2022-11-16T00:56:17.188Z,9.70
2022-11-16T00:56:27.342Z,9.80
2022-11-16T00:56:37.306Z,10.80
2022-11-16T00:56:47.270Z,9.70
2022-11-16T00:56:57.259Z,10.50
2022-11-16T00:57:07.380Z,9.20
2022-11-16T00:57:17.382Z,10.00
2022-11-16T00:57:27.323Z,9.40
2022-11-16T00:57:37.341Z,10.30
2022-11-16T00:57:47.259Z,9.90
2022-11-16T00:57:57.436Z,10.00
2022-11-16T00:58:07.164Z,9.70
2022-11-16T00:58:17.216Z,10.60
2022-11-16T00:58:27.427Z,11.80
2022-11-16T00:58:37.349Z,11.50
2022-11-16T00:58:47.425Z,10.30
2022-11-16T00:58:57.166Z,8.60
2022-11-16T00:59:07.346Z,8.90
2022-11-16T00:59:17.298Z,9.00
2022-11-16T00:59:27.416Z,10.40
2022-11-16T00:59:37.256Z,9.90
2022-11-16T00:59:47.263Z,12.30
2022-11-16T00:59:57.479Z,11.10
2022-11-16T01:00:07.407Z,11.40
2022-11-16T01:00:17.276Z,9.00
2022-11-16T01:00:27.426Z,8.70
2022-11-16T01:00:37.476Z,8.70
2022-11-16T01:00:47.431Z,8.90
2022-11-16T01:00:57.423Z,9.30
2022-11-16T01:01:07.356Z,9.40
2022-11-16T01:01:17.266Z,10.10
2022-11-16T01:01:27.200Z,10.40
2022-11-16T01:01:37.354Z,9.90
2022-11-16T01:01:47.247Z,9.40
2022-11-16T01:01:57.412Z,9.50
2022-11-16T01:02:07.170Z,9.60
2022-11-16T01:02:17.348Z,10.30
2022-11-16T01:02:27.446Z,10.20
2022-11-16T01:02:37.284Z,11.20
2022-11-16T01:02:47.383Z,10.50
2022-11-16T01:02:57.442Z,10.40
2022-11-16T01:03:07.386Z,9.30
2022-11-16T01:03:17.347Z,9.60
2022-11-16T01:03:27.246Z,9.70
2022-11-16T01:03:37.479Z,9.30
2022-11-16T01:03:47.446Z,10.30
2022-11-16T01:03:57.248Z,10.60
2022-11-16T01:04:07.187Z,12.10
2022-11-16T01:04:17.356Z,11.00
2022-11-16T01:04:27.243Z,10.00
2022-11-16T01:04:37.368Z,8.90
2022-11-16T01:04:47.397Z,8.60
2022-11-16T01:04:57.226Z,8.70
2022-11-16T01:05:07.380Z,9.40
2022-11-16T01:05:17.484Z,9.70
2022-11-16T01:05:27.280Z,10.00
2022-11-16T01:05:37.303Z,9.40
2022-11-16T01:05:47.174Z,9.30
2022-11-16T01:05:57.313Z,9.40
2022-11-16T01:06:07.247Z,9.70
2022-11-16T01:06:17.399Z,10.00
2022-11-16T01:06:27.443Z,9.40
2022-11-16T01:06:37.449Z,9.30
2022-11-16T01:06:47.355Z,8.40
2022-11-16T01:06:57.298Z,8.20
2022-11-16T01:07:07.361Z,8.40
2022-11-16T01:07:17.495Z,8.90
2022-11-16T01:07:27.305Z,9.30
2022-11-16T01:07:37.296Z,9.10
2022-11-16T01:07:47.352Z,9.20
2022-11-16T01:07:57.272Z,9.40
2022-11-16T01:08:07.434Z,9.70
2022-11-16T01:08:17.417Z,10.30
2022-11-16T01:08:27.446Z,12.60
2022-11-16T01:08:37.299Z,12.70
2022-11-16T01:08:47.168Z,12.70
2022-11-16T01:08:57.338Z,12.20
2022-11-16T01:09:07.211Z,8.50
2022-11-16T01:09:17.192Z,8.80
2022-11-16T01:09:27.207Z,9.40
2022-11-16T01:09:37.347Z,9.90
2022-11-16T01:09:47.441Z,8.80
2022-11-16T01:09:57.375Z,9.10
2022-11-16T01:10:07.439Z,8.30
2022-11-16T01:10:17.321Z,8.50
2022-11-16T01:10:27.271Z,9.40
2022-11-16T01:10:37.391Z,9.60
2022-11-16T01:10:47.213Z,9.90
2022-11-16T01:10:57.369Z,8.70
2022-11-16T01:11:07.311Z,8.90
2022-11-16T01:11:17.337Z,8.70
2022-11-16T01:11:27.200Z,8.70
2022-11-16T01:11:37.482Z,9.10
2022-11-16T01:11:47.252Z,9.80
2022-11-16T01:11:57.182Z,10.30
2022-11-16T01:12:07.166Z,10.10
2022-11-16T01:12:17.179Z,9.50
2022-11-16T01:12:27.345Z,9.10
2022-11-16T01:12:37.239Z,9.20
2022-11-16T01:12:47.229Z,9.30
2022-11-16T01:12:57.269Z,9.70
2022-11-16T01:13:07.402Z,9.90
2022-11-16T01:13:17.394Z,9.70
2022-11-16T01:13:27.209Z,9.00
2022-11-16T01:13:37.301Z,8.20
2022-11-16T01:13:47.376Z,8.30
2022-11-16T01:13:57.298Z,8.70
2022-11-16T01:14:07.376Z,9.70
2022-11-16T01:14:17.389Z,10.00
2022-11-16T01:14:27.165Z,9.90
2022-11-16T01:14:37.446Z,8.80
2022-11-16T01:14:47.377Z,10.40
2022-11-16T01:14:57.223Z,10.00
2022-11-16T01:15:07.241Z,9.90
2022-11-16T01:15:17.269Z,8.10
2022-11-16T01:15:27.298Z,9.30
2022-11-16T01:15:37.283Z,10.70
2022-11-16T01:15:47.373Z,10.90
2022-11-16T01:15:57.324Z,9.90
2022-11-16T01:16:07.171Z,9.70
2022-11-16T01:16:17.457Z,10.60
2022-11-16T01:16:27.399Z,11.70
2022-11-16T01:16:37.526Z,11.40
2022-11-16T01:16:47.165Z,10.90
2022-11-16T01:16:57.414Z,9.80
2022-11-16T01:17:07.286Z,9.10
2022-11-16T01:17:17.370Z,9.80
2022-11-16T01:17:27.220Z,9.60
2022-11-16T01:17:37.190Z,10.70
2022-11-16T01:17:47.341Z,10.40
2022-11-16T01:17:57.215Z,11.00
2022-11-16T01:18:07.329Z,9.80
2022-11-16T01:18:17.194Z,9.90
2022-11-16T01:18:27.164Z,10.50
2022-11-16T01:18:37.413Z,12.10
2022-11-16T01:18:47.417Z,11.70
2022-11-16T01:18:57.158Z,11.10
2022-11-16T01:19:07.406Z,9.70
2022-11-16T01:19:17.336Z,9.50
2022-11-16T01:19:27.268Z,9.60
2022-11-16T01:19:37.445Z,10.20
2022-11-16T01:19:47.192Z,12.00
2022-11-16T01:19:57.356Z,11.90
2022-11-16T01:20:07.244Z,11.80
2022-11-16T01:20:17.218Z,11.20
2022-11-16T01:20:27.407Z,11.80
2022-11-16T01:20:37.422Z,12.10
2022-11-16T01:20:47.164Z,12.40
2022-11-16T01:20:57.315Z,11.70
2022-11-16T01:21:07.376Z,10.70
2022-11-16T01:21:17.412Z,9.90
2022-11-16T01:21:27.408Z,10.90
2022-11-16T01:21:37.303Z,11.40
2022-11-16T01:21:47.337Z,10.90
2022-11-16T01:21:57.193Z,9.70
2022-11-16T01:22:07.248Z,10.00
2022-11-16T01:22:17.332Z,9.30
2022-11-16T01:22:27.462Z,9.30
2022-11-16T01:22:37.309Z,9.30
2022-11-16T01:22:47.214Z,9.50
2022-11-16T01:22:57.286Z,10.70
2022-11-16T01:23:07.350Z,10.80
2022-11-16T01:23:17.454Z,11.40
2022-11-16T01:23:27.379Z,10.50
2022-11-16T01:23:37.429Z,10.10
2022-11-16T01:23:47.358Z,9.90
2022-11-16T01:23:57.432Z,10.00
2022-11-16T01:24:07.377Z,10.50
2022-11-16T01:24:17.289Z,10.30
2022-11-16T01:24:27.320Z,10.80
2022-11-16T01:24:37.435Z,10.00
2022-11-16T01:24:47.268Z,10.40
2022-11-16T01:24:57.299Z,9.20
2022-11-16T01:25:07.281Z,10.90
2022-11-16T01:25:17.238Z,10.60
2022-11-16T01:25:27.159Z,11.70
2022-11-16T01:25:37.455Z,10.40
2022-11-16T01:25:47.157Z,10.60
2022-11-16T01:25:57.371Z,9.60
2022-11-16T01:26:07.292Z,9.60
2022-11-16T01:26:17.312Z,9.70
2022-11-16T01:26:27.164Z,9.40
2022-11-16T01:26:37.265Z,10.00
2022-11-16T01:26:47.335Z,9.80
2022-11-16T01:26:57.189Z,9.50
2022-11-16T01:27:07.341Z,9.90
2022-11-16T01:27:17.409Z,10.10
2022-11-16T01:27:27.442Z,10.20
2022-11-16T01:27:37.230Z,9.60
2022-11-16T01:27:47.256Z,9.40
2022-11-16T01:27:57.219Z,10.00
2022-11-16T01:28:07.252Z,9.90
2022-11-16T01:28:17.151Z,10.30
2022-11-16T01:28:27.195Z,9.90
2022-11-16T01:28:37.380Z,10.50
2022-11-16T01:28:47.439Z,11.00
2022-11-16T01:28:57.195Z,11.00
2022-11-16T01:29:07.353Z,10.70
2022-11-16T01:29:17.160Z,10.80
2022-11-16T01:29:27.290Z,10.50
2022-11-16T01:29:37.362Z,10.10
2022-11-16T01:29:47.381Z,9.90
2022-11-16T01:29:57.233Z,10.70
2022-11-16T01:30:07.170Z,11.10
2022-11-16T01:30:17.396Z,11.10
2022-11-16T01:30:27.243Z,10.10
2022-11-16T01:30:37.204Z,10.20
2022-11-16T01:30:47.215Z,9.60
2022-11-16T01:30:57.243Z,8.90
2022-11-16T01:31:07.398Z,9.30
2022-11-16T01:31:17.217Z,9.50
2022-11-16T01:31:27.235Z,10.40
2022-11-16T01:31:37.264Z,10.20
2022-11-16T01:31:47.349Z,11.60
2022-11-16T01:31:57.281Z,12.00
2022-11-16T01:32:07.364Z,12.30
2022-11-16T01:32:17.326Z,12.60
2022-11-16T01:32:27.222Z,12.60
2022-11-16T01:32:37.419Z,12.10
2022-11-16T01:32:47.407Z,10.90
2022-11-16T01:32:57.208Z,11.10
2022-11-16T01:33:07.180Z,11.10
2022-11-16T01:33:17.258Z,11.90
2022-11-16T01:33:27.234Z,12.00
2022-11-16T01:33:37.278Z,12.60
2022-11-16T01:33:47.391Z,12.00
2022-11-16T01:33:57.214Z,11.60
2022-11-16T01:34:07.356Z,12.40
2022-11-16T01:34:17.370Z,11.10
2022-11-16T01:34:27.442Z,11.00
2022-11-16T01:34:37.365Z,9.40
2022-11-16T01:34:47.358Z,10.70
2022-11-16T01:34:57.202Z,11.80
2022-11-16T01:35:07.368Z,12.10
2022-11-16T01:35:17.326Z,13.10
2022-11-16T01:35:27.413Z,12.30
2022-11-16T01:35:37.320Z,12.30
2022-11-16T01:35:47.204Z,11.90
2022-11-16T01:35:57.381Z,12.10
2022-11-16T01:36:07.197Z,12.70
2022-11-16T01:36:17.248Z,11.90
2022-11-16T01:36:27.357Z,11.50
2022-11-16T01:36:37.311Z,11.00
2022-11-16T01:36:47.161Z,10.50
2022-11-16T01:36:57.324Z,10.50
2022-11-16T01:37:07.244Z,10.10
2022-11-16T01:37:17.249Z,11.00
2022-11-16T01:37:27.229Z,12.00
2022-11-16T01:37:37.314Z,12.50
2022-11-16T01:37:47.309Z,12.60
2022-11-16T01:37:57.407Z,11.40
2022-11-16T01:38:07.189Z,12.30
2022-11-16T01:38:17.177Z,13.50
2022-11-16T01:38:29.925Z,13.80
2022-11-16T01:38:37.338Z,13.30
2022-11-16T01:38:47.180Z,11.70
2022-11-16T01:38:57.201Z,11.70
2022-11-16T01:39:07.374Z,10.90
2022-11-16T01:39:17.385Z,11.00
2022-11-16T01:39:27.223Z,10.90
2022-11-16T01:39:37.431Z,11.40
2022-11-16T01:39:47.280Z,10.90
2022-11-16T01:39:57.321Z,10.60
2022-11-16T01:40:07.329Z,11.10
2022-11-16T01:40:17.363Z,11.20
2022-11-16T01:40:27.411Z,11.10
2022-11-16T01:40:37.287Z,10.60
2022-11-16T01:40:47.201Z,11.00
2022-11-16T01:40:57.355Z,12.00
2022-11-16T01:41:07.284Z,12.20
2022-11-16T01:41:17.203Z,11.70
2022-11-16T01:41:27.238Z,11.20
2022-11-16T01:41:37.265Z,11.00
2022-11-16T01:41:47.362Z,11.40
2022-11-16T01:41:57.184Z,11.40
2022-11-16T01:42:07.350Z,11.30
2022-11-16T01:42:17.427Z,11.40
2022-11-16T01:42:27.375Z,11.70
2022-11-16T01:42:37.470Z,11.70
2022-11-16T01:42:47.413Z,11.10
2022-11-16T01:42:57.356Z,10.30
2022-11-16T01:43:07.180Z,10.40
2022-11-16T01:43:17.449Z,11.20
2022-11-16T01:43:27.196Z,11.50
2022-11-16T01:43:37.377Z,11.30
2022-11-16T01:43:47.403Z,10.70
2022-11-16T01:43:57.302Z,11.30
2022-11-16T01:44:07.228Z,12.00
2022-11-16T01:44:17.229Z,12.60
2022-11-16T01:44:27.290Z,12.60
2022-11-16T01:44:37.399Z,11.60
2022-11-16T01:44:47.263Z,11.00
2022-11-16T01:44:57.206Z,11.60
2022-11-16T01:45:07.407Z,11.70
2022-11-16T01:45:17.381Z,12.50
2022-11-16T01:45:27.353Z,13.10
2022-11-16T01:45:37.315Z,12.90
2022-11-16T01:45:47.421Z,12.50
2022-11-16T01:45:57.150Z,11.20
2022-11-16T01:46:07.423Z,11.90
2022-11-16T01:46:17.349Z,12.30
2022-11-16T01:46:27.445Z,12.40
2022-11-16T01:46:37.347Z,15.00
2022-11-16T01:46:47.315Z,14.70
2022-11-16T01:46:57.354Z,15.00
2022-11-16T01:47:07.305Z,12.20
2022-11-16T01:47:17.459Z,12.20
2022-11-16T01:47:27.391Z,11.90
2022-11-16T01:47:37.425Z,12.30
2022-11-16T01:47:47.431Z,13.20
2022-11-16T01:47:57.431Z,13.40
2022-11-16T01:48:07.404Z,13.90
2022-11-16T01:48:17.471Z,12.70
2022-11-16T01:48:27.528Z,12.20
2022-11-16T01:48:37.792Z,13.00
2022-11-16T01:48:47.457Z,13.20
2022-11-16T01:48:57.258Z,13.20
2022-11-16T01:49:07.311Z,11.20
2022-11-16T01:49:17.370Z,11.30
2022-11-16T01:49:27.255Z,11.40
2022-11-16T01:49:37.387Z,12.00
2022-11-16T01:49:47.364Z,12.40
2022-11-16T01:49:57.300Z,13.10
2022-11-16T01:50:07.187Z,13.80
2022-11-16T01:50:17.254Z,14.10
2022-11-16T01:50:27.223Z,14.10
2022-11-16T01:50:37.313Z,13.60
2022-11-16T01:50:47.446Z,12.40
2022-11-16T01:50:57.174Z,12.30
2022-11-16T01:51:07.296Z,12.60
2022-11-16T01:51:17.333Z,13.20
2022-11-16T01:51:27.311Z,12.10
2022-11-16T01:51:37.543Z,10.90
2022-11-16T01:51:47.428Z,10.60
2022-11-16T01:51:57.468Z,11.40
2022-11-16T01:52:07.220Z,11.80
2022-11-16T01:52:17.471Z,12.60
2022-11-16T01:52:27.352Z,13.80
2022-11-16T01:52:37.200Z,14.30
2022-11-16T01:52:47.361Z,13.70
2022-11-16T01:52:57.431Z,12.30
2022-11-16T01:53:07.458Z,11.60
2022-11-16T01:53:17.268Z,11.60
2022-11-16T01:53:27.266Z,11.80
2022-11-16T01:53:37.200Z,12.20
2022-11-16T01:53:47.395Z,12.80
2022-11-16T01:53:57.287Z,12.80
2022-11-16T01:54:07.314Z,14.10
2022-11-16T01:54:17.474Z,13.20
2022-11-16T01:54:27.312Z,13.30
2022-11-16T01:54:37.456Z,12.40
2022-11-16T01:54:47.326Z,12.90
2022-11-16T01:54:57.326Z,12.50
2022-11-16T01:55:07.382Z,11.80
2022-11-16T01:55:17.419Z,11.90
2022-11-16T01:55:27.289Z,11.70
2022-11-16T01:55:37.369Z,11.90
2022-11-16T01:55:47.254Z,12.30
2022-11-16T01:55:57.368Z,12.40
2022-11-16T01:56:07.317Z,12.00
2022-11-16T01:56:17.326Z,11.30
2022-11-16T01:56:27.319Z,11.80
2022-11-16T01:56:37.285Z,12.50
2022-11-16T01:56:47.261Z,12.80
2022-11-16T01:56:57.195Z,12.60
2022-11-16T01:57:07.363Z,12.50
2022-11-16T01:57:17.307Z,12.50
2022-11-16T01:57:27.249Z,13.00
2022-11-16T01:57:37.430Z,13.10
2022-11-16T01:57:47.321Z,13.20
2022-11-16T01:57:57.438Z,12.80
2022-11-16T01:58:07.250Z,12.30
2022-11-16T01:58:17.419Z,13.50
2022-11-16T01:58:27.334Z,14.70
2022-11-16T01:58:37.254Z,14.90
2022-11-16T01:58:47.432Z,13.80
2022-11-16T01:58:57.288Z,14.30
2022-11-16T01:59:07.421Z,15.30
2022-11-16T01:59:17.273Z,16.80
2022-11-16T01:59:27.300Z,15.70
2022-11-16T01:59:37.287Z,14.60
2022-11-16T01:59:47.372Z,13.70
2022-11-16T01:59:57.367Z,13.90
2022-11-16T02:00:07.337Z,14.80
2022-11-16T02:00:17.282Z,14.30
2022-11-16T02:00:27.180Z,14.20
2022-11-16T02:00:37.257Z,13.70
2022-11-16T02:00:47.405Z,13.90
2022-11-16T02:00:57.298Z,14.10
2022-11-16T02:01:07.297Z,14.60
2022-11-16T02:01:17.278Z,14.90
2022-11-16T02:01:27.310Z,14.50
2022-11-16T02:01:37.348Z,14.10
2022-11-16T02:01:47.474Z,14.40
2022-11-16T02:01:57.455Z,15.30
2022-11-16T02:02:07.212Z,15.10
2022-11-16T02:02:17.306Z,14.20
2022-11-16T02:02:27.476Z,14.10
2022-11-16T02:02:37.216Z,14.30
2022-11-16T02:02:47.423Z,15.30
2022-11-16T02:02:57.373Z,14.60
2022-11-16T02:03:07.288Z,14.70
2022-11-16T02:03:17.244Z,13.90
2022-11-16T02:03:27.152Z,14.80
2022-11-16T02:03:37.388Z,14.90
2022-11-16T02:03:47.200Z,15.00
2022-11-16T02:03:57.260Z,14.50
2022-11-16T02:04:07.443Z,14.80
2022-11-16T02:04:17.463Z,15.20
2022-11-16T02:04:27.405Z,14.80
2022-11-16T02:04:37.179Z,14.40
2022-11-16T02:04:47.274Z,14.30
2022-11-16T02:04:57.368Z,14.30
2022-11-16T02:05:07.347Z,14.40
2022-11-16T02:05:17.309Z,14.80
2022-11-16T02:05:27.294Z,15.20
2022-11-16T02:05:37.300Z,15.50
2022-11-16T02:05:47.445Z,15.60
2022-11-16T02:05:57.479Z,15.70
2022-11-16T02:06:07.248Z,15.70
2022-11-16T02:06:17.162Z,15.80
2022-11-16T02:06:27.277Z,14.90
2022-11-16T02:06:37.344Z,15.40
2022-11-16T02:06:47.354Z,15.20
2022-11-16T02:06:57.346Z,15.60
2022-11-16T02:07:07.292Z,14.90
2022-11-16T02:07:17.552Z,15.60
2022-11-16T02:07:27.404Z,15.60
2022-11-16T02:07:37.320Z,15.60
2022-11-16T02:07:47.241Z,14.50
2022-11-16T02:07:57.309Z,14.60
2022-11-16T02:08:07.170Z,14.90
2022-11-16T02:08:17.281Z,15.10
2022-11-16T02:08:27.210Z,15.70
2022-11-16T02:08:37.278Z,15.70
2022-11-16T02:08:47.302Z,15.50
2022-11-16T02:08:57.317Z,15.80
2022-11-16T02:09:07.353Z,16.10
2022-11-16T02:09:17.217Z,16.40
2022-11-16T02:09:27.374Z,15.50
2022-11-16T02:09:37.189Z,14.90
2022-11-16T02:09:47.195Z,15.70
2022-11-16T02:09:57.320Z,15.60
2022-11-16T02:10:07.380Z,16.10
2022-11-16T02:10:17.435Z,15.60